createdAt,value
2019-03-22T00:01:53.322Z,99980.19
2019-03-22T00:04:21.589Z,99985.09
2019-03-22T00:06:49.870Z,99990.23
2019-03-22T00:09:18.133Z,99986.75
2019-03-22T00:11:46.692Z,99986.53
2019-03-22T00:14:14.957Z,99985.98
2019-03-22T00:16:43.249Z,99983.41
2019-03-22T00:19:11.505Z,99980.56
2019-03-22T00:21:39.786Z,99975.70
2019-03-22T00:24:08.048Z,99976.05
2019-03-22T00:26:37.155Z,99980.52
2019-03-22T00:29:05.440Z,99980.11
2019-03-22T00:31:33.729Z,99976.05
2019-03-22T00:34:01.985Z,99983.48
2019-03-22T00:36:30.271Z,99982.50
2019-03-22T00:38:59.355Z,99979.75
2019-03-22T00:41:27.634Z,99979.39
2019-03-22T00:43:56.489Z,99982.45
2019-03-22T00:46:24.745Z,99978.67
2019-03-22T00:48:53.002Z,99978.94
2019-03-22T00:51:21.289Z,99978.22
2019-03-22T00:53:49.554Z,99975.88
2019-03-22T00:56:17.833Z,99971.05
2019-03-22T00:58:46.097Z,99968.39
2019-03-22T01:01:14.377Z,99970.96
2019-03-22T01:03:42.647Z,99976.84
2019-03-22T01:06:10.936Z,99971.08
2019-03-22T01:08:39.185Z,99972.02
2019-03-22T01:11:07.721Z,99968.81
2019-03-22T01:13:36.002Z,99962.08
2019-03-22T01:16:04.267Z,99969.56
2019-03-22T01:18:33.118Z,99960.64
2019-03-22T01:21:01.946Z,99959.69
2019-03-22T01:23:30.233Z,99960.95
2019-03-22T01:25:58.493Z,99959.64
2019-03-22T01:28:26.782Z,99963.05
2019-03-22T01:30:55.046Z,99957.92
2019-03-22T01:33:23.327Z,99959.03
2019-03-22T01:35:51.586Z,99962.41
2019-03-22T01:38:20.433Z,99953.11
2019-03-22T01:40:49.463Z,99953.38
2019-03-22T01:43:17.751Z,99955.81
2019-03-22T01:45:46.009Z,99962.50
2019-03-22T01:48:14.296Z,99963.78
2019-03-22T01:50:42.556Z,99962.80
2019-03-22T01:53:10.833Z,99960.72
2019-03-22T01:55:39.099Z,99971.33
2019-03-22T01:58:07.419Z,99977.78
2019-03-22T02:00:35.685Z,99974.59
2019-03-22T02:03:03.981Z,99972.03
2019-03-22T02:05:32.225Z,99956.95
2019-03-22T02:08:01.280Z,99957.48
2019-03-22T02:10:30.211Z,99961.31
2019-03-22T02:12:58.498Z,99958.94
2019-03-22T02:15:27.852Z,99958.80
2019-03-22T02:17:56.804Z,99956.61
2019-03-22T02:20:25.063Z,99961.87
2019-03-22T02:22:53.343Z,99953.20
2019-03-22T02:25:21.604Z,99951.99
2019-03-22T02:27:50.656Z,99937.63
2019-03-22T02:30:18.939Z,99934.34
2019-03-22T02:32:47.535Z,99940.16
2019-03-22T02:35:28.198Z,99938.34
2019-03-22T02:37:47.357Z,99938.53
2019-03-22T02:40:15.607Z,99930.38
2019-03-22T02:42:43.893Z,99932.53
2019-03-22T02:45:14.354Z,99930.46
2019-03-22T02:47:41.998Z,99931.39
2019-03-22T02:50:18.372Z,99923.99
2019-03-22T02:52:42.508Z,99932.11
2019-03-22T02:55:11.309Z,99931.81
2019-03-22T02:57:39.594Z,99933.00
2019-03-22T03:00:18.005Z,99940.67
2019-03-22T03:02:46.296Z,99933.66
2019-03-22T03:05:15.713Z,99937.27
2019-03-22T03:07:43.972Z,99926.75
2019-03-22T03:10:14.684Z,99927.83
2019-03-22T03:12:43.536Z,99921.84
2019-03-22T03:15:16.370Z,99918.09
2019-03-22T03:17:44.624Z,99913.31
2019-03-22T03:20:17.476Z,99919.01
2019-03-22T03:22:46.510Z,99919.07
2019-03-22T03:25:15.068Z,99915.19
2019-03-22T03:27:43.898Z,99921.08
2019-03-22T03:30:15.310Z,99920.85
2019-03-22T03:32:43.561Z,99918.70
2019-03-22T03:35:11.846Z,99913.59
2019-03-22T03:37:40.111Z,99914.77
2019-03-22T03:40:13.122Z,99917.66
2019-03-22T03:42:41.699Z,99917.23
2019-03-22T03:45:34.667Z,99912.50
2019-03-22T03:48:04.798Z,99907.76
2019-03-22T03:50:33.080Z,99900.17
2019-03-22T03:53:01.919Z,99902.39
2019-03-22T03:55:30.973Z,99903.31
2019-03-22T03:57:59.231Z,99897.12
2019-03-22T04:00:28.081Z,99897.09
2019-03-22T04:02:56.360Z,99901.22
2019-03-22T04:05:25.088Z,99900.88
2019-03-22T04:07:53.507Z,99903.95
2019-03-22T04:10:21.794Z,99900.88
2019-03-22T04:12:50.824Z,99898.41
2019-03-22T04:15:19.107Z,99897.97
2019-03-22T04:17:48.051Z,99907.59
2019-03-22T04:20:16.336Z,99913.91
2019-03-22T04:22:44.583Z,99912.05
2019-03-22T04:25:12.878Z,99909.45
2019-03-22T04:27:41.899Z,99911.23
2019-03-22T04:30:11.540Z,99904.66
2019-03-22T04:32:39.778Z,99902.37
2019-03-22T04:35:08.127Z,99898.73
2019-03-22T04:37:36.394Z,99901.89
2019-03-22T04:40:25.854Z,99893.66
2019-03-22T04:42:54.127Z,99894.27
2019-03-22T04:45:23.234Z,99898.38
2019-03-22T04:47:53.996Z,99905.22
2019-03-22T04:50:22.281Z,99899.37
2019-03-22T04:52:50.783Z,99909.98
2019-03-22T04:55:19.639Z,99906.52
2019-03-22T04:57:47.906Z,99914.33
2019-03-22T05:00:16.190Z,99906.53
2019-03-22T05:02:44.448Z,99905.38
2019-03-22T05:05:13.040Z,99900.16
2019-03-22T05:07:41.371Z,99904.00
2019-03-22T05:10:10.023Z,99898.08
2019-03-22T05:12:38.289Z,99898.48
2019-03-22T05:15:07.444Z,99904.16
2019-03-22T05:17:35.708Z,99898.09
2019-03-22T05:20:05.028Z,99903.25
2019-03-22T05:22:33.291Z,99902.11
2019-03-22T05:25:02.147Z,99909.78
2019-03-22T05:27:30.414Z,99904.17
2019-03-22T05:29:58.695Z,99916.87
2019-03-22T05:32:27.524Z,99929.39
2019-03-22T05:34:56.584Z,99934.92
2019-03-22T05:37:24.843Z,99928.89
2019-03-22T05:39:53.130Z,99934.50
2019-03-22T05:42:21.392Z,99935.36
2019-03-22T05:44:49.680Z,99938.62
2019-03-22T05:47:18.706Z,99943.04
2019-03-22T05:49:47.767Z,99942.88
2019-03-22T05:52:16.025Z,99947.70
2019-03-22T05:54:44.977Z,99947.58
2019-03-22T05:57:14.120Z,99954.59
2019-03-22T05:59:43.185Z,99958.25
2019-03-22T06:02:11.620Z,99961.88
2019-03-22T06:04:39.880Z,99963.78
2019-03-22T06:07:08.232Z,99966.19
2019-03-22T06:09:37.061Z,99975.80
2019-03-22T06:12:05.343Z,99975.25
2019-03-22T06:14:34.376Z,99982.69
2019-03-22T06:17:02.660Z,99976.30
2019-03-22T06:19:31.695Z,99982.25
2019-03-22T06:21:59.978Z,99981.98
2019-03-22T06:24:28.552Z,99980.61
2019-03-22T06:26:57.134Z,99980.97
2019-03-22T06:29:25.521Z,99981.09
2019-03-22T06:31:53.786Z,99978.61
2019-03-22T06:34:22.215Z,99985.03
2019-03-22T06:36:50.507Z,99981.15
2019-03-22T06:39:18.768Z,99971.52
2019-03-22T06:41:47.051Z,99974.09
2019-03-22T06:44:15.313Z,99979.19
2019-03-22T06:46:43.599Z,99979.44
2019-03-22T06:49:11.860Z,99979.58
2019-03-22T06:51:40.243Z,99971.77
2019-03-22T06:54:08.572Z,99976.42
2019-03-22T06:56:36.855Z,99980.47
2019-03-22T06:59:05.160Z,99982.66
2019-03-22T07:01:33.400Z,99987.12
2019-03-22T07:04:01.660Z,99987.56
2019-03-22T07:06:29.944Z,99983.86
2019-03-22T07:08:58.380Z,99981.38
2019-03-22T07:11:26.669Z,99989.03
2019-03-22T07:13:54.933Z,99988.25
2019-03-22T07:16:23.215Z,99982.38
2019-03-22T07:18:51.477Z,99982.17
2019-03-22T07:21:19.764Z,99985.63
2019-03-22T07:23:48.095Z,99990.02
2019-03-22T07:26:16.547Z,99996.89
2019-03-22T07:28:44.976Z,99988.89
2019-03-22T07:31:13.335Z,99980.47
2019-03-22T07:33:41.773Z,99981.69
2019-03-22T07:36:10.056Z,99983.03
2019-03-22T07:38:38.369Z,99983.31
2019-03-22T07:41:06.653Z,99985.72
2019-03-22T07:43:35.083Z,99983.45
2019-03-22T07:46:03.368Z,99985.38
2019-03-22T07:48:32.400Z,99988.17
2019-03-22T07:51:00.682Z,99984.13
2019-03-22T07:53:29.306Z,99978.73
2019-03-22T07:55:57.564Z,99985.73
2019-03-22T07:58:26.882Z,99980.03
2019-03-22T08:00:55.153Z,99977.44
2019-03-22T08:03:23.431Z,99972.50
2019-03-22T08:05:51.815Z,99968.52
2019-03-22T08:08:20.061Z,99965.22
2019-03-22T08:10:48.892Z,99965.10
2019-03-22T08:13:17.176Z,99967.66
2019-03-22T08:15:45.454Z,99963.58
2019-03-22T08:18:13.722Z,99961.88
2019-03-22T08:20:41.980Z,99972.78
2019-03-22T08:23:18.518Z,99975.17
2019-03-22T08:25:46.757Z,99985.02
2019-03-22T08:28:15.056Z,99971.92
2019-03-22T08:30:43.590Z,99959.86
2019-03-22T08:33:11.889Z,99955.11
2019-03-22T08:35:40.897Z,99943.86
2019-03-22T08:38:09.190Z,99942.45
2019-03-22T08:40:37.448Z,99948.83
2019-03-22T08:43:05.731Z,99947.83
2019-03-22T08:45:34.004Z,99945.05
2019-03-22T08:48:02.323Z,99944.66
2019-03-22T08:50:30.538Z,99948.21
2019-03-22T08:52:58.823Z,99945.66
2019-03-22T08:55:27.426Z,99950.99
2019-03-22T08:57:55.684Z,99940.87
2019-03-22T09:00:24.016Z,99938.36
2019-03-22T09:02:52.292Z,99937.16
2019-03-22T09:05:21.161Z,99933.53
2019-03-22T09:07:49.407Z,99933.24
2019-03-22T09:10:18.365Z,99940.02
2019-03-22T09:12:46.623Z,99939.30
2019-03-22T09:15:14.884Z,99938.67
2019-03-22T09:17:43.169Z,99927.19
2019-03-22T09:20:11.428Z,99920.70
2019-03-22T09:22:39.718Z,99919.33
2019-03-22T09:25:08.608Z,99914.19
2019-03-22T09:27:36.991Z,99911.35
2019-03-22T09:30:11.481Z,99910.95
2019-03-22T09:32:39.763Z,99917.39
2019-03-22T09:35:08.025Z,99915.92
2019-03-22T09:37:36.674Z,99921.69
2019-03-22T09:40:08.620Z,99915.88
2019-03-22T09:42:37.129Z,99914.78
2019-03-22T09:45:06.818Z,99908.67
2019-03-22T09:47:35.076Z,99912.43
2019-03-22T09:50:04.907Z,99909.19
2019-03-22T09:52:33.822Z,99903.75
2019-03-22T09:55:12.635Z,99902.34
2019-03-22T09:57:32.816Z,99899.53
2019-03-22T10:00:01.142Z,99900.72
2019-03-22T10:02:29.473Z,99899.73
2019-03-22T10:04:58.464Z,99897.32
2019-03-22T10:07:26.804Z,99894.33
2019-03-22T10:09:55.106Z,99890.98
2019-03-22T10:12:23.345Z,99887.40
2019-03-22T10:14:51.666Z,99887.64
2019-03-22T10:17:19.911Z,99883.49
2019-03-22T10:19:48.195Z,99875.61
2019-03-22T10:22:16.460Z,99875.61
2019-03-22T10:24:44.787Z,99874.67
2019-03-22T10:27:13.065Z,99869.09
2019-03-22T10:29:41.316Z,99865.43
2019-03-22T10:32:09.582Z,99864.31
2019-03-22T10:34:39.888Z,99866.11
2019-03-22T10:37:07.641Z,99862.75
2019-03-22T10:39:36.679Z,99865.98
2019-03-22T10:42:06.559Z,99863.64
2019-03-22T10:44:35.387Z,99869.38
2019-03-22T10:47:04.482Z,99863.44
2019-03-22T10:49:32.720Z,99857.91
2019-03-22T10:52:01.090Z,99853.97
2019-03-22T10:54:30.115Z,99858.55
2019-03-22T10:56:58.448Z,99853.17
2019-03-22T10:59:26.743Z,99845.12
2019-03-22T11:02:03.402Z,99842.96
2019-03-22T11:04:25.788Z,99846.84
2019-03-22T11:06:54.140Z,99843.27
2019-03-22T11:09:22.423Z,99838.84
2019-03-22T11:11:50.722Z,99840.21
2019-03-22T11:14:18.969Z,99844.77
2019-03-22T11:16:47.230Z,99835.04
2019-03-22T11:19:15.555Z,99840.94
2019-03-22T11:21:43.816Z,99842.52
2019-03-22T11:24:12.099Z,99842.11
2019-03-22T11:26:40.936Z,99836.16
2019-03-22T11:29:09.218Z,99832.77
2019-03-22T11:31:40.150Z,99826.67
2019-03-22T11:34:07.494Z,99820.58
2019-03-22T11:36:35.751Z,99820.52
2019-03-22T11:39:15.109Z,99814.24
2019-03-22T11:41:38.351Z,99816.02
2019-03-22T11:44:07.176Z,99801.73
2019-03-22T11:46:35.435Z,99807.23
2019-03-22T11:49:03.729Z,99799.44
2019-03-22T11:51:32.574Z,99800.89
2019-03-22T11:54:00.847Z,99797.85
2019-03-22T11:56:29.104Z,99787.31
2019-03-22T11:58:58.156Z,99784.63
2019-03-22T12:01:26.415Z,99783.02
2019-03-22T12:03:54.695Z,99778.45
2019-03-22T12:06:22.963Z,99770.24
2019-03-22T12:08:51.244Z,99781.70
2019-03-22T12:11:19.502Z,99772.00
2019-03-22T12:13:47.794Z,99775.44
2019-03-22T12:16:16.096Z,99761.72
2019-03-22T12:18:44.848Z,99762.98
2019-03-22T12:21:14.448Z,99746.42
2019-03-22T12:23:42.726Z,99746.42
2019-03-22T12:26:11.764Z,99750.56
2019-03-22T12:28:40.042Z,99744.72
2019-03-22T12:31:08.876Z,99739.30
2019-03-22T12:33:37.160Z,99742.46
2019-03-22T12:36:05.425Z,99740.38
2019-03-22T12:38:33.716Z,99735.89
2019-03-22T12:41:02.748Z,99735.89
2019-03-22T12:43:31.031Z,99719.14
2019-03-22T12:45:59.764Z,99728.44
2019-03-22T12:48:28.824Z,99726.00
2019-03-22T12:50:57.905Z,99718.48
2019-03-22T12:53:26.187Z,99713.75
2019-03-22T12:55:54.448Z,99716.58
2019-03-22T12:58:22.733Z,99716.34
2019-03-22T13:00:51.667Z,99733.94
2019-03-22T13:03:19.933Z,99703.64
2019-03-22T13:05:48.220Z,99702.11
2019-03-22T13:08:16.483Z,99693.53
2019-03-22T13:10:45.339Z,99690.84
2019-03-22T13:13:13.600Z,99690.84
2019-03-22T13:15:41.884Z,99686.88
2019-03-22T13:18:10.915Z,99682.88
2019-03-22T13:20:39.484Z,99677.97
2019-03-22T13:23:08.548Z,99668.72
2019-03-22T13:25:37.398Z,99676.86
2019-03-22T13:28:05.661Z,99672.56
2019-03-22T13:30:35.283Z,99659.33
2019-03-22T13:33:03.814Z,99660.76
2019-03-22T13:35:32.094Z,99665.82
2019-03-22T13:38:00.354Z,99661.91
2019-03-22T13:40:28.633Z,99657.55
2019-03-22T13:42:56.890Z,99649.64
2019-03-22T13:45:25.949Z,99652.77
2019-03-22T13:47:54.576Z,99647.78
2019-03-22T13:50:22.858Z,99643.59
2019-03-22T13:52:51.122Z,99646.32
2019-03-22T13:55:19.395Z,99647.76
2019-03-22T13:57:47.658Z,99647.85
2019-03-22T14:00:17.666Z,99641.04
2019-03-22T14:02:45.921Z,99635.84
2019-03-22T14:05:14.198Z,99628.71
2019-03-22T14:07:43.234Z,99631.41
2019-03-22T14:10:31.482Z,99633.95
2019-03-22T14:13:01.937Z,99625.83
2019-03-22T14:15:30.213Z,99626.31
2019-03-22T14:17:58.641Z,99628.31
2019-03-22T14:20:26.921Z,99623.75
2019-03-22T14:22:55.176Z,99619.73
2019-03-22T14:25:23.533Z,99617.08
2019-03-22T14:27:52.058Z,99609.26
2019-03-22T14:30:20.343Z,99616.80
2019-03-22T14:32:48.603Z,99613.66
2019-03-22T14:35:17.426Z,99608.41
2019-03-22T14:37:46.474Z,99604.58
2019-03-22T14:40:15.743Z,99604.52
2019-03-22T14:42:44.290Z,99598.27
2019-03-22T14:45:13.114Z,99594.88
2019-03-22T14:47:41.397Z,99591.63
2019-03-22T14:50:10.493Z,99589.28
2019-03-22T14:52:38.774Z,99578.48
2019-03-22T14:55:07.034Z,99581.70
2019-03-22T14:57:35.323Z,99576.44
2019-03-22T15:00:05.687Z,99575.18
2019-03-22T15:02:34.838Z,99567.70
2019-03-22T15:05:03.100Z,99560.87
2019-03-22T15:07:31.389Z,99562.83
2019-03-22T15:09:59.647Z,99561.50
2019-03-22T15:12:27.932Z,99561.45
2019-03-22T15:15:04.557Z,99553.72
2019-03-22T15:17:37.206Z,99549.52
2019-03-22T15:20:13.395Z,99547.33
2019-03-22T15:22:49.883Z,99548.00
2019-03-22T15:25:19.777Z,99545.54
2019-03-22T15:27:58.826Z,99543.66
2019-03-22T15:30:44.937Z,99543.52
2019-03-22T15:33:34.167Z,99543.37
2019-03-22T15:36:15.358Z,99539.78
2019-03-22T15:38:45.384Z,99542.89
2019-03-22T15:41:13.741Z,99535.41
2019-03-22T15:43:42.862Z,99539.42
2019-03-22T15:46:11.689Z,99538.16
2019-03-22T15:48:39.967Z,99538.23
2019-03-22T15:51:08.222Z,99529.68
2019-03-22T15:53:37.074Z,99531.80
2019-03-22T15:56:05.335Z,99532.38
2019-03-22T15:58:33.878Z,99531.08
2019-03-22T16:01:02.307Z,99528.66
2019-03-22T16:03:32.524Z,99527.16
2019-03-22T16:06:00.876Z,99525.52
2019-03-22T16:08:29.142Z,99515.39
2019-03-22T16:10:57.405Z,99520.79
2019-03-22T16:13:27.018Z,99510.86
2019-03-22T16:15:55.276Z,99513.05
2019-03-22T16:18:24.323Z,99505.45
2019-03-22T16:20:59.865Z,99498.36
2019-03-22T16:23:22.592Z,99503.66
2019-03-22T16:25:50.836Z,99508.47
2019-03-22T16:28:19.118Z,99502.39
2019-03-22T16:30:47.374Z,99497.05
2019-03-22T16:33:15.670Z,99498.02
2019-03-22T16:35:43.936Z,99498.72
2019-03-22T16:38:12.217Z,99496.64
2019-03-22T16:40:40.470Z,99494.94
2019-03-22T16:43:08.756Z,99497.57
2019-03-22T16:45:41.588Z,99488.78
2019-03-22T16:48:09.875Z,99496.02
2019-03-22T16:50:38.132Z,99490.57
2019-03-22T16:53:06.415Z,99487.30
2019-03-22T16:55:35.443Z,99484.00
2019-03-22T16:58:03.723Z,99486.73
2019-03-22T17:00:31.983Z,99487.50
2019-03-22T17:03:00.267Z,99482.44
2019-03-22T17:05:28.522Z,99480.97
2019-03-22T17:07:56.781Z,99478.88
2019-03-22T17:10:25.095Z,99477.17
2019-03-22T17:12:53.923Z,99481.80
2019-03-22T17:15:22.196Z,99481.51
2019-03-22T17:17:50.507Z,99480.66
2019-03-22T17:20:18.789Z,99484.42
2019-03-22T17:22:47.289Z,99480.14
2019-03-22T17:25:15.567Z,99474.98
2019-03-22T17:27:45.438Z,99475.81
2019-03-22T17:30:13.792Z,99472.41
2019-03-22T17:32:43.381Z,99472.41
2019-03-22T17:35:11.658Z,99467.78
2019-03-22T17:37:39.916Z,99464.88
2019-03-22T17:40:08.468Z,99468.97
2019-03-22T17:42:36.994Z,99466.63
2019-03-22T17:45:11.009Z,99464.05
2019-03-22T17:47:39.267Z,99465.83
2019-03-22T17:50:08.893Z,99464.09
2019-03-22T17:52:37.151Z,99459.02
2019-03-22T17:55:07.171Z,99459.95
2019-03-22T17:57:35.774Z,99459.92
2019-03-22T18:00:05.992Z,99461.13
2019-03-22T18:02:34.249Z,99459.50
2019-03-22T18:05:02.528Z,99457.63
2019-03-22T18:07:30.781Z,99459.92
2019-03-22T18:09:59.062Z,99458.34
2019-03-22T18:12:28.358Z,99457.53
2019-03-22T18:14:57.210Z,99461.11
2019-03-22T18:17:25.467Z,99455.09
2019-03-22T18:19:53.751Z,99464.92
2019-03-22T18:22:22.006Z,99468.19
2019-03-22T18:24:50.287Z,99460.68
2019-03-22T18:27:19.314Z,99463.47
2019-03-22T18:29:47.598Z,99469.01
2019-03-22T18:32:15.857Z,99459.87
2019-03-22T18:34:44.706Z,99464.83
2019-03-22T18:37:12.957Z,99458.34
2019-03-22T18:39:41.216Z,99465.47
2019-03-22T18:42:09.498Z,99461.45
2019-03-22T18:44:37.833Z,99461.91
2019-03-22T18:47:06.109Z,99463.82
2019-03-22T18:49:34.935Z,99464.81
2019-03-22T18:52:03.511Z,99465.06
2019-03-22T18:54:31.765Z,99468.45
2019-03-22T18:57:00.049Z,99464.72
2019-03-22T18:59:28.297Z,99463.25
2019-03-22T19:01:56.578Z,99465.86
2019-03-22T19:04:25.408Z,99470.45
2019-03-22T19:06:53.691Z,99464.80
2019-03-22T19:09:22.722Z,99469.19
2019-03-22T19:11:51.006Z,99468.91
2019-03-22T19:14:19.266Z,99465.67
2019-03-22T19:16:47.545Z,99464.59
2019-03-22T19:19:16.368Z,99466.02
2019-03-22T19:21:45.034Z,99471.42
2019-03-22T19:24:14.081Z,99468.59
2019-03-22T19:26:42.338Z,99473.88
2019-03-22T19:29:10.641Z,99469.56
2019-03-22T19:31:38.899Z,99473.47
2019-03-22T19:34:07.205Z,99470.92
2019-03-22T19:36:36.225Z,99472.52
2019-03-22T19:39:06.542Z,99464.51
2019-03-22T19:41:35.187Z,99466.18
2019-03-22T19:44:03.460Z,99455.83
2019-03-22T19:46:31.728Z,99464.47
2019-03-22T19:49:00.012Z,99459.16
2019-03-22T19:51:28.273Z,99459.92
2019-03-22T19:53:56.549Z,99459.87
2019-03-22T19:56:24.810Z,99459.97
2019-03-22T19:58:53.854Z,99462.13
2019-03-22T20:01:22.118Z,99458.52
2019-03-22T20:03:50.404Z,99453.97
2019-03-22T20:06:19.436Z,99457.10
2019-03-22T20:08:47.720Z,99460.55
2019-03-22T20:11:15.979Z,99462.29
2019-03-22T20:13:44.822Z,99461.34
2019-03-22T20:16:13.649Z,99466.55
2019-03-22T20:18:41.929Z,99461.80
2019-03-22T20:21:10.190Z,99460.16
2019-03-22T20:23:38.489Z,99465.02
2019-03-22T20:26:06.750Z,99461.14
2019-03-22T20:28:35.029Z,99461.20
2019-03-22T20:31:03.291Z,99462.77
2019-03-22T20:33:31.546Z,99470.31
2019-03-22T20:35:59.826Z,99463.98
2019-03-22T20:38:28.082Z,99462.37
2019-03-22T20:40:56.365Z,99460.06
2019-03-22T20:43:25.205Z,99470.31
2019-03-22T20:45:53.494Z,99463.86
2019-03-22T20:48:21.750Z,99459.31
2019-03-22T20:50:50.601Z,99459.31
2019-03-22T20:53:19.726Z,99454.86
2019-03-22T20:55:48.574Z,99458.02
2019-03-22T20:58:16.893Z,99461.20
2019-03-22T21:00:45.171Z,99456.56
2019-03-22T21:03:13.998Z,99458.91
2019-03-22T21:05:42.281Z,99456.45
2019-03-22T21:08:10.539Z,99458.55
2019-03-22T21:10:39.592Z,99461.27
2019-03-22T21:13:07.842Z,99453.63
2019-03-22T21:15:36.117Z,99453.17
2019-03-22T21:18:04.384Z,99451.19
2019-03-22T21:20:32.654Z,99446.14
2019-03-22T21:23:00.915Z,99451.16
2019-03-22T21:25:29.194Z,99445.70
2019-03-22T21:27:58.295Z,99449.89
2019-03-22T21:30:26.580Z,99445.31
2019-03-22T21:32:54.839Z,99450.84
2019-03-22T21:35:23.885Z,99449.88
2019-03-22T21:37:52.144Z,99449.12
2019-03-22T21:40:21.328Z,99448.42
2019-03-22T21:42:50.357Z,99450.43
2019-03-22T21:45:18.911Z,99440.41
2019-03-22T21:47:47.840Z,99442.45
2019-03-22T21:50:16.130Z,99441.62
2019-03-22T21:52:44.662Z,99437.61
2019-03-22T21:55:13.518Z,99434.87
2019-03-22T21:57:41.773Z,99433.84
2019-03-22T22:00:12.553Z,99435.96
2019-03-22T22:02:40.814Z,99437.44
2019-03-22T22:05:09.090Z,99437.89
2019-03-22T22:07:37.347Z,99436.95
2019-03-22T22:10:07.422Z,99436.92
2019-03-22T22:12:35.673Z,99430.25
2019-03-22T22:15:12.135Z,99425.95
2019-03-22T22:17:41.062Z,99420.73
2019-03-22T22:20:10.277Z,99422.53
2019-03-22T22:22:39.877Z,99423.94
2019-03-22T22:25:08.755Z,99420.49
2019-03-22T22:27:37.180Z,99419.73
2019-03-22T22:30:10.422Z,99417.52
2019-03-22T22:32:38.639Z,99417.02
2019-03-22T22:35:09.679Z,99416.67
2019-03-22T22:37:37.934Z,99419.11
2019-03-22T22:40:07.761Z,99420.17
2019-03-22T22:42:36.092Z,99414.09
2019-03-22T22:45:07.296Z,99417.40
2019-03-22T22:47:35.850Z,99416.54
2019-03-22T22:50:05.366Z,99408.42
2019-03-22T22:52:33.617Z,99419.14
2019-03-22T22:55:01.893Z,99410.20
2019-03-22T22:57:30.149Z,99401.41
2019-03-22T22:59:58.410Z,99403.62
2019-03-22T23:02:26.682Z,99405.61
2019-03-22T23:04:55.709Z,99401.56
2019-03-22T23:07:23.989Z,99394.63
2019-03-22T23:09:52.239Z,99391.03
2019-03-22T23:12:20.513Z,99388.99
2019-03-22T23:14:48.765Z,99381.68
2019-03-22T23:17:17.814Z,99385.02
2019-03-22T23:19:46.075Z,99386.69
2019-03-22T23:22:14.346Z,99381.16
2019-03-22T23:24:42.883Z,99388.23
2019-03-22T23:27:11.267Z,99380.41
2019-03-22T23:29:39.530Z,99378.99
2019-03-22T23:32:07.819Z,99376.14
2019-03-22T23:34:36.644Z,99377.64
2019-03-22T23:37:07.116Z,99369.69
2019-03-22T23:39:34.970Z,99379.97
2019-03-22T23:42:03.821Z,99375.90
2019-03-22T23:44:32.074Z,99379.62
2019-03-22T23:47:01.123Z,99373.63
2019-03-22T23:49:29.384Z,99374.75
2019-03-22T23:51:58.227Z,99374.92
2019-03-22T23:54:26.482Z,99370.92
2019-03-22T23:56:55.047Z,99365.36
2019-03-22T23:59:23.777Z,99363.84
